Barbarossa — ZDFA4 — position and weather

sailwx.info

Track history (hours):
 
Tides and Currents Weather Stations Pressure Air Temp Water Temp Dewpoint Dewpoint Depression Visibility Wind Speed Wind Dir Waves Ship Positions

Barbarossa

Last reported at 2016-Dec-01 08:30 UTC. Time now 2016-Dec-03 15:36 UTC.
Position N 43°43' W 005°17'.

Length 83 m; draft 4 m.

Type: Cargo ship. MMSI: 236029000.

Date/timePositionNaut miles runAvg speedWind from/ knotsBaromVisibWave heightAir tempDewpointWater temp
2016-Dec-01 08:30N 43°43' W 005°17'1111.3
2016-Dec-01 07:33N 43°44' W 005°31'1111.3
2016-Dec-01 06:33N 43°45' W 005°47'1111.1
2016-Dec-01 05:33N 43°47' W 006°02'321 8.7
2016-Nov-29 16:33N 39°15' W 009°50'1111.2
2016-Nov-29 15:33N 39°03' W 009°50'1111.4
2016-Nov-29 14:34N 38°52' W 009°50'1211.6
2016-Nov-29 13:33N 38°40' W 009°49'1211.8
2016-Nov-29 12:33N 38°29' W 009°46'1111.3
2016-Nov-29 11:33N 38°18' W 009°43'1211.1
2016-Nov-29 10:30N 38°07' W 009°39'1111.1
2016-Nov-29 09:32N 37°56' W 009°36'1111.3
2016-Nov-29 08:33N 37°45' W 009°33'22110.0
2016-Nov-28 10:26N 35°59' W 005°31'8 8.4
2016-Nov-28 09:26N 36°01' W 005°21'23310.1
2016-Nov-27 10:13N 37°23' W 000°49'1810.9
2016-Nov-27 08:33N 37°36' W 000°32'109 9.6
2016-Nov-26 21:17N 39°24' W 000°16'4 5.8
2016-Nov-26 20:32N 39°27' W 000°19'0 0.0
2016-Nov-26 19:32N 39°27' W 000°19'0 0.0
2016-Nov-26 18:31N 39°27' W 000°19'0 0.0
2016-Nov-26 17:31N 39°27' W 000°19'0 0.0
2016-Nov-26 16:30N 39°27' W 000°19'0 0.0
2016-Nov-26 15:33N 39°27' W 000°19'0 0.0
2016-Nov-26 14:29N 39°27' W 000°19'0 0.0
2016-Nov-26 13:29N 39°27' W 000°19'0 0.0
2016-Nov-26 12:29N 39°27' W 000°19'0 0.0
2016-Nov-26 11:31N 39°27' W 000°19'0 0.0
2016-Nov-26 10:31N 39°27' W 000°19'0 0.0
2016-Nov-26 09:33N 39°27' W 000°19'0 0.0
2016-Nov-26 08:21N 39°27' W 000°19'0 0.0
2016-Nov-26 07:32N 39°27' W 000°19'0 0.0
2016-Nov-26 06:33N 39°27' W 000°19'0 0.0
2016-Nov-26 05:32N 39°27' W 000°19'0 0.0
2016-Nov-26 04:32N 39°27' W 000°19'0 0.0
2016-Nov-26 02:19N 39°27' W 000°19'0 0.0
2016-Nov-26 01:30N 39°27' W 000°19'0 0.0
2016-Nov-26 00:30N 39°27' W 000°19'0 0.0
2016-Nov-25 23:29N 39°27' W 000°19'0 0.0
2016-Nov-25 22:32N 39°27' W 000°19'0 0.0
2016-Nov-25 21:28N 39°27' W 000°19'0 0.0
2016-Nov-25 20:28N 39°27' W 000°19'0 0.0
2016-Nov-25 19:28N 39°27' W 000°19'0 0.0
2016-Nov-25 18:27N 39°27' W 000°19'0 0.0
2016-Nov-25 17:33N 39°27' W 000°19'0 0.0
2016-Nov-25 16:26N 39°27' W 000°19'0 0.0
2016-Nov-25 15:32N 39°27' W 000°19'0 0.0
2016-Nov-25 14:31N 39°27' W 000°19'0 0.0
2016-Nov-25 13:31N 39°27' W 000°19'4 4.0
2016-Nov-25 12:33N 39°28' W 000°14'11 1.3
2016-Nov-25 04:27N 39°38' W 000°13'91 2.4
2016-Nov-23 14:30N 39°12' E 001°40'1210.4
2016-Nov-23 13:20N 39°09' E 001°55'810.1
2016-Nov-23 12:33N 39°07' E 002°05'10 9.7
2016-Nov-23 11:33N 39°05' E 002°17'10 9.9
2016-Nov-23 10:33N 39°02' E 002°30'1010.2
2016-Nov-23 09:33N 39°00' E 002°43'1010.4
2016-Nov-23 08:33N 38°58' E 002°56'1110.4
2016-Nov-23 07:32N 38°56' E 003°09'1410.5
2016-Nov-23 06:12N 38°53' E 003°27'  
Track history (hours):
 
Tides and Currents Weather Stations Pressure Air Temp Water Temp Dewpoint Dewpoint Depression Visibility Wind Speed Wind Dir Waves Ship Positions

Barbarossa

Last reported at 2016-Dec-01 08:30 UTC. Time now 2016-Dec-03 15:36 UTC.
Position N 43°43' W 005°17'.

Length 83 m; draft 4 m.

Type: Cargo ship. MMSI: 236029000.

Date/timePositionNaut miles runAvg speedWind from/ knotsBaromVisibWave heightAir tempDewpointWater temp
2016-Dec-01 08:30N 43°43' W 005°17'1111.3
2016-Dec-01 07:33N 43°44' W 005°31'1111.3
2016-Dec-01 06:33N 43°45' W 005°47'1111.1
2016-Dec-01 05:33N 43°47' W 006°02'321 8.7
2016-Nov-29 16:33N 39°15' W 009°50'1111.2
2016-Nov-29 15:33N 39°03' W 009°50'1111.4
2016-Nov-29 14:34N 38°52' W 009°50'1211.6
2016-Nov-29 13:33N 38°40' W 009°49'1211.8
2016-Nov-29 12:33N 38°29' W 009°46'1111.3
2016-Nov-29 11:33N 38°18' W 009°43'1211.1
2016-Nov-29 10:30N 38°07' W 009°39'1111.1
2016-Nov-29 09:32N 37°56' W 009°36'1111.3
2016-Nov-29 08:33N 37°45' W 009°33'22110.0
2016-Nov-28 10:26N 35°59' W 005°31'8 8.4
2016-Nov-28 09:26N 36°01' W 005°21'23310.1
2016-Nov-27 10:13N 37°23' W 000°49'1810.9
2016-Nov-27 08:33N 37°36' W 000°32'109 9.6
2016-Nov-26 21:17N 39°24' W 000°16'4 5.8
2016-Nov-26 20:32N 39°27' W 000°19'0 0.0
2016-Nov-26 19:32N 39°27' W 000°19'0 0.0
2016-Nov-26 18:31N 39°27' W 000°19'0 0.0
2016-Nov-26 17:31N 39°27' W 000°19'0 0.0
2016-Nov-26 16:30N 39°27' W 000°19'0 0.0
2016-Nov-26 15:33N 39°27' W 000°19'0 0.0
2016-Nov-26 14:29N 39°27' W 000°19'0 0.0
2016-Nov-26 13:29N 39°27' W 000°19'0 0.0
2016-Nov-26 12:29N 39°27' W 000°19'0 0.0
2016-Nov-26 11:31N 39°27' W 000°19'0 0.0
2016-Nov-26 10:31N 39°27' W 000°19'0 0.0
2016-Nov-26 09:33N 39°27' W 000°19'0 0.0
2016-Nov-26 08:21N 39°27' W 000°19'0 0.0
2016-Nov-26 07:32N 39°27' W 000°19'0 0.0
2016-Nov-26 06:33N 39°27' W 000°19'0 0.0
2016-Nov-26 05:32N 39°27' W 000°19'0 0.0
2016-Nov-26 04:32N 39°27' W 000°19'0 0.0
2016-Nov-26 02:19N 39°27' W 000°19'0 0.0
2016-Nov-26 01:30N 39°27' W 000°19'0 0.0
2016-Nov-26 00:30N 39°27' W 000°19'0 0.0
2016-Nov-25 23:29N 39°27' W 000°19'0 0.0
2016-Nov-25 22:32N 39°27' W 000°19'0 0.0
2016-Nov-25 21:28N 39°27' W 000°19'0 0.0
2016-Nov-25 20:28N 39°27' W 000°19'0 0.0
2016-Nov-25 19:28N 39°27' W 000°19'0 0.0
2016-Nov-25 18:27N 39°27' W 000°19'0 0.0
2016-Nov-25 17:33N 39°27' W 000°19'0 0.0
2016-Nov-25 16:26N 39°27' W 000°19'0 0.0
2016-Nov-25 15:32N 39°27' W 000°19'0 0.0
2016-Nov-25 14:31N 39°27' W 000°19'0 0.0
2016-Nov-25 13:31N 39°27' W 000°19'4 4.0
2016-Nov-25 12:33N 39°28' W 000°14'11 1.3
2016-Nov-25 04:27N 39°38' W 000°13'91 2.4
2016-Nov-23 14:30N 39°12' E 001°40'1210.4
2016-Nov-23 13:20N 39°09' E 001°55'810.1
2016-Nov-23 12:33N 39°07' E 002°05'10 9.7
2016-Nov-23 11:33N 39°05' E 002°17'10 9.9
2016-Nov-23 10:33N 39°02' E 002°30'1010.2
2016-Nov-23 09:33N 39°00' E 002°43'1010.4
2016-Nov-23 08:33N 38°58' E 002°56'1110.4
2016-Nov-23 07:32N 38°56' E 003°09'1410.5
2016-Nov-23 06:12N 38°53' E 003°27'  

Dump ship's entire track history